sensor_id;sensor_type;location;lat;lon;timestamp;P1;durP1;ratioP1;P2;durP2;ratioP2
73675;SDS011;61975;48.660;10.164;2023-10-08T00:02:03;24.35;;;6.63;;
73675;SDS011;61975;48.660;10.164;2023-10-08T00:04:31;14.40;;;4.25;;
73675;SDS011;61975;48.660;10.164;2023-10-08T00:07:02;9.25;;;2.90;;
73675;SDS011;61975;48.660;10.164;2023-10-08T00:09:32;9.68;;;3.53;;
73675;SDS011;61975;48.660;10.164;2023-10-08T00:12:02;9.25;;;2.95;;
73675;SDS011;61975;48.660;10.164;2023-10-08T00:14:28;10.70;;;2.90;;
73675;SDS011;61975;48.660;10.164;2023-10-08T00:16:54;8.02;;;2.50;;
73675;SDS011;61975;48.660;10.164;2023-10-08T00:19:19;7.68;;;2.17;;
73675;SDS011;61975;48.660;10.164;2023-10-08T00:21:46;8.80;;;2.50;;
73675;SDS011;61975;48.660;10.164;2023-10-08T00:24:14;6.97;;;2.28;;
73675;SDS011;61975;48.660;10.164;2023-10-08T00:26:40;6.78;;;1.98;;
73675;SDS011;61975;48.660;10.164;2023-10-08T00:29:06;6.97;;;2.27;;
73675;SDS011;61975;48.660;10.164;2023-10-08T00:31:41;6.72;;;2.15;;
73675;SDS011;61975;48.660;10.164;2023-10-08T00:34:11;6.78;;;2.22;;
73675;SDS011;61975;48.660;10.164;2023-10-08T00:36:38;10.00;;;3.58;;
73675;SDS011;61975;48.660;10.164;2023-10-08T00:39:08;10.83;;;3.70;;
73675;SDS011;61975;48.660;10.164;2023-10-08T00:41:39;8.15;;;3.25;;
73675;SDS011;61975;48.660;10.164;2023-10-08T00:44:07;13.00;;;3.80;;
73675;SDS011;61975;48.660;10.164;2023-10-08T00:46:37;8.85;;;3.38;;
73675;SDS011;61975;48.660;10.164;2023-10-08T00:49:29;17.27;;;5.88;;
73675;SDS011;61975;48.660;10.164;2023-10-08T00:52:08;15.00;;;4.77;;
73675;SDS011;61975;48.660;10.164;2023-10-08T00:54:35;9.90;;;3.53;;
73675;SDS011;61975;48.660;10.164;2023-10-08T00:57:21;11.23;;;4.38;;
73675;SDS011;61975;48.660;10.164;2023-10-08T00:59:48;12.65;;;4.75;;
73675;SDS011;61975;48.660;10.164;2023-10-08T01:02:21;12.07;;;4.22;;
73675;SDS011;61975;48.660;10.164;2023-10-08T01:04:51;10.10;;;4.47;;
73675;SDS011;61975;48.660;10.164;2023-10-08T01:07:17;10.57;;;4.05;;
73675;SDS011;61975;48.660;10.164;2023-10-08T01:09:44;10.50;;;4.07;;
73675;SDS011;61975;48.660;10.164;2023-10-08T01:12:16;12.00;;;3.83;;
73675;SDS011;61975;48.660;10.164;2023-10-08T01:14:45;9.77;;;3.70;;
73675;SDS011;61975;48.660;10.164;2023-10-08T01:17:14;9.75;;;3.85;;
73675;SDS011;61975;48.660;10.164;2023-10-08T01:19:41;9.50;;;3.38;;
73675;SDS011;61975;48.660;10.164;2023-10-08T01:22:16;7.82;;;3.72;;
73675;SDS011;61975;48.660;10.164;2023-10-08T01:24:46;8.03;;;3.50;;
73675;SDS011;61975;48.660;10.164;2023-10-08T01:27:14;10.15;;;3.92;;
73675;SDS011;61975;48.660;10.164;2023-10-08T01:29:46;9.18;;;3.25;;
73675;SDS011;61975;48.660;10.164;2023-10-08T01:32:12;7.50;;;2.80;;
73675;SDS011;61975;48.660;10.164;2023-10-08T01:34:41;7.77;;;3.07;;
73675;SDS011;61975;48.660;10.164;2023-10-08T01:37:10;7.88;;;3.22;;
73675;SDS011;61975;48.660;10.164;2023-10-08T01:39:38;10.02;;;3.10;;
73675;SDS011;61975;48.660;10.164;2023-10-08T01:42:07;11.93;;;2.67;;
73675;SDS011;61975;48.660;10.164;2023-10-08T01:44:40;9.25;;;2.92;;
73675;SDS011;61975;48.660;10.164;2023-10-08T01:47:05;7.90;;;2.50;;
73675;SDS011;61975;48.660;10.164;2023-10-08T01:49:31;8.10;;;2.80;;
73675;SDS011;61975;48.660;10.164;2023-10-08T01:51:57;7.80;;;2.72;;
73675;SDS011;61975;48.660;10.164;2023-10-08T01:54:23;8.38;;;2.47;;
73675;SDS011;61975;48.660;10.164;2023-10-08T01:56:51;7.15;;;2.60;;
73675;SDS011;61975;48.660;10.164;2023-10-08T01:59:16;10.80;;;3.20;;
73675;SDS011;61975;48.660;10.164;2023-10-08T02:01:42;8.37;;;2.77;;
73675;SDS011;61975;48.660;10.164;2023-10-08T02:04:09;7.65;;;3.20;;
73675;SDS011;61975;48.660;10.164;2023-10-08T02:06:38;9.23;;;2.75;;
73675;SDS011;61975;48.660;10.164;2023-10-08T02:09:06;8.27;;;2.72;;
73675;SDS011;61975;48.660;10.164;2023-10-08T02:11:42;7.70;;;2.40;;
73675;SDS011;61975;48.660;10.164;2023-10-08T02:14:09;10.43;;;2.53;;
73675;SDS011;61975;48.660;10.164;2023-10-08T02:16:35;6.80;;;2.25;;
73675;SDS011;61975;48.660;10.164;2023-10-08T02:19:02;9.13;;;2.40;;
73675;SDS011;61975;48.660;10.164;2023-10-08T02:21:28;7.80;;;2.60;;
73675;SDS011;61975;48.660;10.164;2023-10-08T02:23:54;10.02;;;2.45;;
73675;SDS011;61975;48.660;10.164;2023-10-08T02:26:19;9.10;;;2.83;;
73675;SDS011;61975;48.660;10.164;2023-10-08T02:28:44;7.27;;;2.50;;
73675;SDS011;61975;48.660;10.164;2023-10-08T02:31:10;6.03;;;2.47;;
73675;SDS011;61975;48.660;10.164;2023-10-08T02:33:35;6.53;;;1.73;;
73675;SDS011;61975;48.660;10.164;2023-10-08T02:36:02;7.55;;;2.20;;
73675;SDS011;61975;48.660;10.164;2023-10-08T02:38:29;6.30;;;2.38;;
73675;SDS011;61975;48.660;10.164;2023-10-08T02:41:02;6.13;;;2.38;;
73675;SDS011;61975;48.660;10.164;2023-10-08T02:43:32;6.37;;;2.30;;
73675;SDS011;61975;48.660;10.164;2023-10-08T02:45:59;8.75;;;2.30;;
73675;SDS011;61975;48.660;10.164;2023-10-08T02:48:25;5.95;;;2.05;;
73675;SDS011;61975;48.660;10.164;2023-10-08T02:50:52;10.07;;;2.05;;
73675;SDS011;61975;48.660;10.164;2023-10-08T02:53:19;6.93;;;2.00;;
73675;SDS011;61975;48.660;10.164;2023-10-08T02:55:48;7.50;;;2.00;;
73675;SDS011;61975;48.660;10.164;2023-10-08T02:58:15;6.43;;;1.60;;
73675;SDS011;61975;48.660;10.164;2023-10-08T03:00:47;7.85;;;2.08;;
73675;SDS011;61975;48.660;10.164;2023-10-08T03:03:14;6.07;;;2.00;;
73675;SDS011;61975;48.660;10.164;2023-10-08T03:05:49;6.72;;;2.47;;
73675;SDS011;61975;48.660;10.164;2023-10-08T03:08:17;6.07;;;2.10;;
73675;SDS011;61975;48.660;10.164;2023-10-08T03:10:50;7.82;;;2.10;;
73675;SDS011;61975;48.660;10.164;2023-10-08T03:13:20;5.88;;;2.00;;
73675;SDS011;61975;48.660;10.164;2023-10-08T03:15:46;4.85;;;1.73;;
73675;SDS011;61975;48.660;10.164;2023-10-08T03:18:22;5.33;;;1.60;;
73675;SDS011;61975;48.660;10.164;2023-10-08T03:20:48;7.72;;;1.85;;
73675;SDS011;61975;48.660;10.164;2023-10-08T03:23:15;6.72;;;2.10;;
73675;SDS011;61975;48.660;10.164;2023-10-08T03:25:53;7.47;;;2.20;;
73675;SDS011;61975;48.660;10.164;2023-10-08T03:28:27;7.33;;;2.00;;
73675;SDS011;61975;48.660;10.164;2023-10-08T03:30:53;6.95;;;2.33;;
73675;SDS011;61975;48.660;10.164;2023-10-08T03:33:31;5.85;;;2.08;;
73675;SDS011;61975;48.660;10.164;2023-10-08T03:35:59;8.60;;;2.65;;
73675;SDS011;61975;48.660;10.164;2023-10-08T03:38:54;7.95;;;2.55;;
73675;SDS011;61975;48.660;10.164;2023-10-08T03:41:23;7.27;;;2.50;;
73675;SDS011;61975;48.660;10.164;2023-10-08T03:43:55;6.57;;;2.40;;
73675;SDS011;61975;48.660;10.164;2023-10-08T03:46:30;6.95;;;2.38;;
73675;SDS011;61975;48.660;10.164;2023-10-08T03:48:57;6.68;;;2.30;;
73675;SDS011;61975;48.660;10.164;2023-10-08T03:51:29;7.45;;;2.88;;
73675;SDS011;61975;48.660;10.164;2023-10-08T03:54:00;6.70;;;2.58;;
73675;SDS011;61975;48.660;10.164;2023-10-08T03:56:34;8.27;;;2.40;;
73675;SDS011;61975;48.660;10.164;2023-10-08T03:59:02;8.82;;;2.22;;
73675;SDS011;61975;48.660;10.164;2023-10-08T04:01:45;8.38;;;2.30;;
73675;SDS011;61975;48.660;10.164;2023-10-08T04:04:13;6.72;;;2.10;;
73675;SDS011;61975;48.660;10.164;2023-10-08T04:06:39;6.50;;;2.00;;
73675;SDS011;61975;48.660;10.164;2023-10-08T04:09:13;8.10;;;2.08;;
73675;SDS011;61975;48.660;10.164;2023-10-08T04:11:45;6.60;;;1.88;;
73675;SDS011;61975;48.660;10.164;2023-10-08T04:14:20;7.17;;;1.80;;
73675;SDS011;61975;48.660;10.164;2023-10-08T04:16:48;8.07;;;1.90;;
73675;SDS011;61975;48.660;10.164;2023-10-08T04:19:17;5.57;;;1.70;;
73675;SDS011;61975;48.660;10.164;2023-10-08T04:21:52;8.20;;;2.08;;
73675;SDS011;61975;48.660;10.164;2023-10-08T04:24:22;6.97;;;2.10;;
73675;SDS011;61975;48.660;10.164;2023-10-08T04:26:56;6.13;;;1.80;;
73675;SDS011;61975;48.660;10.164;2023-10-08T04:29:22;6.40;;;2.22;;
73675;SDS011;61975;48.660;10.164;2023-10-08T04:31:49;8.07;;;2.00;;
73675;SDS011;61975;48.660;10.164;2023-10-08T04:34:25;7.35;;;2.25;;
73675;SDS011;61975;48.660;10.164;2023-10-08T04:36:52;6.22;;;2.03;;
73675;SDS011;61975;48.660;10.164;2023-10-08T04:39:25;7.95;;;1.85;;
73675;SDS011;61975;48.660;10.164;2023-10-08T04:41:59;5.97;;;1.85;;
73675;SDS011;61975;48.660;10.164;2023-10-08T04:44:34;7.07;;;1.90;;
73675;SDS011;61975;48.660;10.164;2023-10-08T04:47:03;7.95;;;2.30;;
73675;SDS011;61975;48.660;10.164;2023-10-08T04:49:32;9.90;;;2.67;;
73675;SDS011;61975;48.660;10.164;2023-10-08T04:52:03;7.13;;;2.10;;
73675;SDS011;61975;48.660;10.164;2023-10-08T04:54:38;7.47;;;1.85;;
73675;SDS011;61975;48.660;10.164;2023-10-08T04:57:05;7.30;;;2.13;;
73675;SDS011;61975;48.660;10.164;2023-10-08T04:59:31;7.63;;;2.50;;
73675;SDS011;61975;48.660;10.164;2023-10-08T05:02:04;9.15;;;2.55;;
73675;SDS011;61975;48.660;10.164;2023-10-08T05:04:49;10.15;;;3.08;;
73675;SDS011;61975;48.660;10.164;2023-10-08T05:07:33;6.38;;;2.30;;
73675;SDS011;61975;48.660;10.164;2023-10-08T05:10:25;6.65;;;2.17;;
73675;SDS011;61975;48.660;10.164;2023-10-08T05:12:50;7.30;;;1.90;;
73675;SDS011;61975;48.660;10.164;2023-10-08T05:15:28;5.85;;;2.03;;
73675;SDS011;61975;48.660;10.164;2023-10-08T05:18:12;9.48;;;2.72;;
73675;SDS011;61975;48.660;10.164;2023-10-08T05:20:44;5.07;;;2.17;;
73675;SDS011;61975;48.660;10.164;2023-10-08T05:23:16;7.78;;;2.10;;
73675;SDS011;61975;48.660;10.164;2023-10-08T05:25:50;5.85;;;1.98;;
73675;SDS011;61975;48.660;10.164;2023-10-08T05:31:22;5.03;;;1.60;;
73675;SDS011;61975;48.660;10.164;2023-10-08T05:34:01;6.10;;;1.80;;
73675;SDS011;61975;48.660;10.164;2023-10-08T05:36:41;4.88;;;1.73;;
73675;SDS011;61975;48.660;10.164;2023-10-08T05:39:37;7.65;;;2.13;;
73675;SDS011;61975;48.660;10.164;2023-10-08T05:42:19;5.07;;;1.77;;
73675;SDS011;61975;48.660;10.164;2023-10-08T05:44:50;5.00;;;1.60;;
73675;SDS011;61975;48.660;10.164;2023-10-08T05:47:35;7.17;;;1.73;;
73675;SDS011;61975;48.660;10.164;2023-10-08T05:50:01;6.00;;;1.77;;
73675;SDS011;61975;48.660;10.164;2023-10-08T05:52:43;5.90;;;1.95;;
73675;SDS011;61975;48.660;10.164;2023-10-08T05:55:21;9.33;;;2.23;;
73675;SDS011;61975;48.660;10.164;2023-10-08T06:00:43;6.63;;;2.72;;
73675;SDS011;61975;48.660;10.164;2023-10-08T06:03:18;9.35;;;2.80;;
73675;SDS011;61975;48.660;10.164;2023-10-08T06:06:07;8.25;;;2.38;;
73675;SDS011;61975;48.660;10.164;2023-10-08T06:08:39;6.27;;;2.00;;
73675;SDS011;61975;48.660;10.164;2023-10-08T06:11:29;6.18;;;1.80;;
73675;SDS011;61975;48.660;10.164;2023-10-08T06:14:07;7.22;;;2.60;;
73675;SDS011;61975;48.660;10.164;2023-10-08T06:16:41;7.03;;;2.95;;
73675;SDS011;61975;48.660;10.164;2023-10-08T06:19:09;8.90;;;2.58;;
73675;SDS011;61975;48.660;10.164;2023-10-08T06:21:36;11.50;;;3.10;;
73675;SDS011;61975;48.660;10.164;2023-10-08T06:24:04;8.40;;;2.97;;
73675;SDS011;61975;48.660;10.164;2023-10-08T06:26:39;7.60;;;2.50;;
73675;SDS011;61975;48.660;10.164;2023-10-08T06:29:11;10.57;;;2.95;;
73675;SDS011;61975;48.660;10.164;2023-10-08T06:31:55;8.27;;;2.85;;
73675;SDS011;61975;48.660;10.164;2023-10-08T06:34:22;6.83;;;2.93;;
73675;SDS011;61975;48.660;10.164;2023-10-08T06:36:52;9.05;;;2.63;;
73675;SDS011;61975;48.660;10.164;2023-10-08T06:39:22;7.68;;;2.55;;
73675;SDS011;61975;48.660;10.164;2023-10-08T06:41:58;7.68;;;2.67;;
73675;SDS011;61975;48.660;10.164;2023-10-08T06:44:24;7.45;;;2.30;;
73675;SDS011;61975;48.660;10.164;2023-10-08T06:46:49;9.07;;;2.63;;
73675;SDS011;61975;48.660;10.164;2023-10-08T06:49:17;9.85;;;2.50;;
73675;SDS011;61975;48.660;10.164;2023-10-08T06:51:43;8.53;;;2.63;;
73675;SDS011;61975;48.660;10.164;2023-10-08T06:54:09;9.98;;;2.72;;
73675;SDS011;61975;48.660;10.164;2023-10-08T06:56:38;11.30;;;4.03;;
73675;SDS011;61975;48.660;10.164;2023-10-08T06:59:08;9.10;;;3.92;;
73675;SDS011;61975;48.660;10.164;2023-10-08T07:01:34;12.43;;;4.07;;
73675;SDS011;61975;48.660;10.164;2023-10-08T07:04:06;10.82;;;4.53;;
73675;SDS011;61975;48.660;10.164;2023-10-08T07:06:36;11.98;;;3.72;;
73675;SDS011;61975;48.660;10.164;2023-10-08T07:09:02;9.57;;;4.23;;
73675;SDS011;61975;48.660;10.164;2023-10-08T07:11:32;10.65;;;4.57;;
73675;SDS011;61975;48.660;10.164;2023-10-08T07:14:04;10.45;;;3.92;;
73675;SDS011;61975;48.660;10.164;2023-10-08T07:16:31;7.72;;;2.33;;
73675;SDS011;61975;48.660;10.164;2023-10-08T07:18:57;8.10;;;2.00;;
73675;SDS011;61975;48.660;10.164;2023-10-08T07:21:41;8.77;;;2.75;;
73675;SDS011;61975;48.660;10.164;2023-10-08T07:24:13;6.82;;;2.15;;
73675;SDS011;61975;48.660;10.164;2023-10-08T07:26:42;7.88;;;2.90;;
73675;SDS011;61975;48.660;10.164;2023-10-08T07:29:12;7.95;;;2.25;;
73675;SDS011;61975;48.660;10.164;2023-10-08T07:31:45;8.33;;;2.13;;
73675;SDS011;61975;48.660;10.164;2023-10-08T07:34:17;7.53;;;2.53;;
73675;SDS011;61975;48.660;10.164;2023-10-08T07:36:50;6.72;;;2.38;;
73675;SDS011;61975;48.660;10.164;2023-10-08T07:39:17;9.00;;;2.25;;
73675;SDS011;61975;48.660;10.164;2023-10-08T07:41:52;7.07;;;2.35;;
73675;SDS011;61975;48.660;10.164;2023-10-08T07:44:22;8.40;;;2.13;;
73675;SDS011;61975;48.660;10.164;2023-10-08T07:46:48;9.27;;;2.10;;
73675;SDS011;61975;48.660;10.164;2023-10-08T07:49:15;8.98;;;2.22;;
73675;SDS011;61975;48.660;10.164;2023-10-08T07:51:41;7.82;;;2.05;;
73675;SDS011;61975;48.660;10.164;2023-10-08T07:54:06;9.73;;;2.50;;
73675;SDS011;61975;48.660;10.164;2023-10-08T07:56:34;10.10;;;2.70;;
73675;SDS011;61975;48.660;10.164;2023-10-08T07:59:02;6.82;;;2.10;;
73675;SDS011;61975;48.660;10.164;2023-10-08T08:01:33;6.93;;;2.40;;
73675;SDS011;61975;48.660;10.164;2023-10-08T08:03:59;9.15;;;2.40;;
73675;SDS011;61975;48.660;10.164;2023-10-08T08:06:25;8.18;;;2.50;;
73675;SDS011;61975;48.660;10.164;2023-10-08T08:08:51;7.10;;;2.20;;
73675;SDS011;61975;48.660;10.164;2023-10-08T08:11:16;14.33;;;2.63;;
73675;SDS011;61975;48.660;10.164;2023-10-08T08:13:49;8.18;;;2.63;;
73675;SDS011;61975;48.660;10.164;2023-10-08T08:16:15;7.82;;;2.45;;
73675;SDS011;61975;48.660;10.164;2023-10-08T08:18:46;5.82;;;2.10;;
73675;SDS011;61975;48.660;10.164;2023-10-08T08:21:14;9.60;;;2.25;;
73675;SDS011;61975;48.660;10.164;2023-10-08T08:23:44;9.57;;;2.20;;
73675;SDS011;61975;48.660;10.164;2023-10-08T08:26:14;8.90;;;2.15;;
73675;SDS011;61975;48.660;10.164;2023-10-08T08:28:57;7.10;;;2.10;;
73675;SDS011;61975;48.660;10.164;2023-10-08T08:31:25;14.70;;;2.25;;
73675;SDS011;61975;48.660;10.164;2023-10-08T08:33:50;8.20;;;2.13;;
73675;SDS011;61975;48.660;10.164;2023-10-08T08:36:21;7.60;;;2.30;;
73675;SDS011;61975;48.660;10.164;2023-10-08T08:38:48;9.45;;;2.10;;
73675;SDS011;61975;48.660;10.164;2023-10-08T08:41:13;11.65;;;2.30;;
73675;SDS011;61975;48.660;10.164;2023-10-08T08:43:43;6.23;;;2.03;;
73675;SDS011;61975;48.660;10.164;2023-10-08T08:46:09;7.18;;;2.25;;
73675;SDS011;61975;48.660;10.164;2023-10-08T08:48:40;9.15;;;2.42;;
73675;SDS011;61975;48.660;10.164;2023-10-08T08:51:07;8.35;;;2.15;;
73675;SDS011;61975;48.660;10.164;2023-10-08T08:53:34;8.95;;;2.50;;
73675;SDS011;61975;48.660;10.164;2023-10-08T08:56:01;6.53;;;1.93;;
73675;SDS011;61975;48.660;10.164;2023-10-08T08:58:30;9.93;;;2.42;;
73675;SDS011;61975;48.660;10.164;2023-10-08T09:00:59;7.55;;;2.08;;
73675;SDS011;61975;48.660;10.164;2023-10-08T09:03:25;10.10;;;2.60;;
73675;SDS011;61975;48.660;10.164;2023-10-08T09:05:58;8.70;;;2.47;;
73675;SDS011;61975;48.660;10.164;2023-10-08T09:08:28;10.17;;;2.80;;
73675;SDS011;61975;48.660;10.164;2023-10-08T09:10:59;9.05;;;2.28;;
73675;SDS011;61975;48.660;10.164;2023-10-08T09:13:29;9.35;;;2.58;;
73675;SDS011;61975;48.660;10.164;2023-10-08T09:16:17;9.60;;;2.20;;
73675;SDS011;61975;48.660;10.164;2023-10-08T09:18:43;7.85;;;1.98;;
73675;SDS011;61975;48.660;10.164;2023-10-08T09:21:11;6.10;;;1.73;;
73675;SDS011;61975;48.660;10.164;2023-10-08T09:23:42;7.30;;;1.88;;
73675;SDS011;61975;48.660;10.164;2023-10-08T09:26:09;8.05;;;1.95;;
73675;SDS011;61975;48.660;10.164;2023-10-08T09:28:36;7.93;;;1.90;;
73675;SDS011;61975;48.660;10.164;2023-10-08T09:31:04;6.00;;;2.08;;
73675;SDS011;61975;48.660;10.164;2023-10-08T09:33:31;5.73;;;1.93;;
73675;SDS011;61975;48.660;10.164;2023-10-08T09:35:58;5.72;;;1.52;;
73675;SDS011;61975;48.660;10.164;2023-10-08T09:38:27;7.75;;;1.63;;
73675;SDS011;61975;48.660;10.164;2023-10-08T09:40:55;7.68;;;1.98;;
73675;SDS011;61975;48.660;10.164;2023-10-08T09:43:22;6.30;;;1.80;;
73675;SDS011;61975;48.660;10.164;2023-10-08T09:45:51;8.02;;;1.88;;
73675;SDS011;61975;48.660;10.164;2023-10-08T09:48:21;7.85;;;2.05;;
73675;SDS011;61975;48.660;10.164;2023-10-08T09:50:50;10.10;;;1.80;;
73675;SDS011;61975;48.660;10.164;2023-10-08T09:53:18;6.22;;;1.52;;
73675;SDS011;61975;48.660;10.164;2023-10-08T09:55:57;7.30;;;2.00;;
73675;SDS011;61975;48.660;10.164;2023-10-08T09:58:23;6.75;;;2.00;;
73675;SDS011;61975;48.660;10.164;2023-10-08T10:00:51;7.72;;;1.80;;
73675;SDS011;61975;48.660;10.164;2023-10-08T10:03:19;8.40;;;1.70;;
73675;SDS011;61975;48.660;10.164;2023-10-08T10:05:47;7.53;;;2.30;;
73675;SDS011;61975;48.660;10.164;2023-10-08T10:08:14;6.47;;;2.17;;
73675;SDS011;61975;48.660;10.164;2023-10-08T10:10:40;5.60;;;1.92;;
73675;SDS011;61975;48.660;10.164;2023-10-08T10:13:11;7.45;;;1.80;;
73675;SDS011;61975;48.660;10.164;2023-10-08T10:15:37;6.73;;;2.10;;
73675;SDS011;61975;48.660;10.164;2023-10-08T10:21:24;5.93;;;1.92;;
73675;SDS011;61975;48.660;10.164;2023-10-08T10:26:28;9.97;;;2.47;;
73675;SDS011;61975;48.660;10.164;2023-10-08T10:31:36;10.40;;;2.10;;
73675;SDS011;61975;48.660;10.164;2023-10-08T10:34:08;5.85;;;1.75;;
73675;SDS011;61975;48.660;10.164;2023-10-08T10:36:34;7.60;;;2.03;;
73675;SDS011;61975;48.660;10.164;2023-10-08T10:39:00;6.47;;;1.83;;
73675;SDS011;61975;48.660;10.164;2023-10-08T10:41:40;6.10;;;1.80;;
73675;SDS011;61975;48.660;10.164;2023-10-08T10:44:07;6.85;;;2.30;;
73675;SDS011;61975;48.660;10.164;2023-10-08T10:46:33;8.48;;;2.42;;
73675;SDS011;61975;48.660;10.164;2023-10-08T10:49:06;9.68;;;2.13;;
73675;SDS011;61975;48.660;10.164;2023-10-08T10:51:58;5.77;;;2.00;;
73675;SDS011;61975;48.660;10.164;2023-10-08T10:54:24;8.30;;;2.10;;
73675;SDS011;61975;48.660;10.164;2023-10-08T10:56:50;6.77;;;2.07;;
73675;SDS011;61975;48.660;10.164;2023-10-08T10:59:42;5.93;;;1.98;;
73675;SDS011;61975;48.660;10.164;2023-10-08T11:02:17;8.13;;;2.17;;
73675;SDS011;61975;48.660;10.164;2023-10-08T11:05:04;7.60;;;2.20;;
73675;SDS011;61975;48.660;10.164;2023-10-08T11:07:44;7.32;;;2.17;;
73675;SDS011;61975;48.660;10.164;2023-10-08T11:10:11;7.03;;;2.10;;
73675;SDS011;61975;48.660;10.164;2023-10-08T11:12:40;7.65;;;2.15;;
73675;SDS011;61975;48.660;10.164;2023-10-08T11:15:12;7.47;;;1.88;;
73675;SDS011;61975;48.660;10.164;2023-10-08T11:17:42;6.95;;;2.10;;
73675;SDS011;61975;48.660;10.164;2023-10-08T11:22:54;6.63;;;1.87;;
73675;SDS011;61975;48.660;10.164;2023-10-08T11:25:23;6.18;;;2.05;;
73675;SDS011;61975;48.660;10.164;2023-10-08T11:27:52;10.60;;;2.33;;
73675;SDS011;61975;48.660;10.164;2023-10-08T11:30:26;8.67;;;1.93;;
73675;SDS011;61975;48.660;10.164;2023-10-08T11:32:55;5.35;;;2.00;;
73675;SDS011;61975;48.660;10.164;2023-10-08T11:35:22;5.80;;;2.00;;
73675;SDS011;61975;48.660;10.164;2023-10-08T11:37:47;9.07;;;2.10;;
73675;SDS011;61975;48.660;10.164;2023-10-08T11:40:23;9.00;;;2.25;;
73675;SDS011;61975;48.660;10.164;2023-10-08T11:42:57;7.18;;;2.22;;
73675;SDS011;61975;48.660;10.164;2023-10-08T11:45:27;5.57;;;2.08;;
73675;SDS011;61975;48.660;10.164;2023-10-08T11:47:53;8.57;;;2.33;;
73675;SDS011;61975;48.660;10.164;2023-10-08T11:50:27;6.20;;;2.33;;
73675;SDS011;61975;48.660;10.164;2023-10-08T11:53:02;7.63;;;2.30;;
73675;SDS011;61975;48.660;10.164;2023-10-08T11:55:34;8.30;;;1.95;;
73675;SDS011;61975;48.660;10.164;2023-10-08T11:58:04;6.05;;;2.10;;
73675;SDS011;61975;48.660;10.164;2023-10-08T12:03:17;7.10;;;2.35;;
73675;SDS011;61975;48.660;10.164;2023-10-08T12:05:46;7.63;;;2.30;;
73675;SDS011;61975;48.660;10.164;2023-10-08T12:08:14;5.57;;;2.13;;
73675;SDS011;61975;48.660;10.164;2023-10-08T12:10:41;10.23;;;2.65;;
73675;SDS011;61975;48.660;10.164;2023-10-08T12:13:14;9.87;;;2.00;;
73675;SDS011;61975;48.660;10.164;2023-10-08T12:15:43;7.60;;;2.22;;
73675;SDS011;61975;48.660;10.164;2023-10-08T12:18:09;5.72;;;2.00;;
73675;SDS011;61975;48.660;10.164;2023-10-08T12:20:49;8.85;;;2.40;;
73675;SDS011;61975;48.660;10.164;2023-10-08T12:23:15;7.43;;;2.53;;
73675;SDS011;61975;48.660;10.164;2023-10-08T12:25:53;9.40;;;2.27;;
73675;SDS011;61975;48.660;10.164;2023-10-08T12:28:21;8.30;;;2.42;;
73675;SDS011;61975;48.660;10.164;2023-10-08T12:30:49;7.32;;;2.45;;
73675;SDS011;61975;48.660;10.164;2023-10-08T12:33:20;7.22;;;2.33;;
73675;SDS011;61975;48.660;10.164;2023-10-08T12:35:47;7.82;;;2.20;;
73675;SDS011;61975;48.660;10.164;2023-10-08T12:38:13;6.23;;;2.50;;
73675;SDS011;61975;48.660;10.164;2023-10-08T12:40:39;9.10;;;2.25;;
73675;SDS011;61975;48.660;10.164;2023-10-08T12:43:20;8.65;;;2.33;;
73675;SDS011;61975;48.660;10.164;2023-10-08T12:45:47;8.20;;;2.22;;
73675;SDS011;61975;48.660;10.164;2023-10-08T12:48:21;7.10;;;2.30;;
73675;SDS011;61975;48.660;10.164;2023-10-08T12:50:49;7.25;;;2.03;;
73675;SDS011;61975;48.660;10.164;2023-10-08T12:53:36;7.20;;;2.33;;
73675;SDS011;61975;48.660;10.164;2023-10-08T12:56:05;11.45;;;2.45;;
73675;SDS011;61975;48.660;10.164;2023-10-08T12:58:35;7.43;;;2.27;;
73675;SDS011;61975;48.660;10.164;2023-10-08T13:01:12;7.53;;;2.40;;
73675;SDS011;61975;48.660;10.164;2023-10-08T13:03:38;8.23;;;2.08;;
73675;SDS011;61975;48.660;10.164;2023-10-08T13:06:10;8.77;;;2.47;;
73675;SDS011;61975;48.660;10.164;2023-10-08T13:08:40;7.82;;;2.22;;
73675;SDS011;61975;48.660;10.164;2023-10-08T13:11:06;7.23;;;2.20;;
73675;SDS011;61975;48.660;10.164;2023-10-08T13:13:32;10.40;;;2.28;;
73675;SDS011;61975;48.660;10.164;2023-10-08T13:16:02;7.97;;;2.20;;
73675;SDS011;61975;48.660;10.164;2023-10-08T13:18:33;10.37;;;2.37;;
73675;SDS011;61975;48.660;10.164;2023-10-08T13:20:59;9.65;;;2.20;;
73675;SDS011;61975;48.660;10.164;2023-10-08T13:23:25;9.98;;;3.00;;
73675;SDS011;61975;48.660;10.164;2023-10-08T13:25:51;9.57;;;2.70;;
73675;SDS011;61975;48.660;10.164;2023-10-08T13:28:24;7.97;;;2.27;;
73675;SDS011;61975;48.660;10.164;2023-10-08T13:30:54;9.95;;;2.50;;
73675;SDS011;61975;48.660;10.164;2023-10-08T13:33:20;6.80;;;2.40;;
73675;SDS011;61975;48.660;10.164;2023-10-08T13:35:48;11.00;;;2.65;;
73675;SDS011;61975;48.660;10.164;2023-10-08T13:38:18;6.05;;;2.17;;
73675;SDS011;61975;48.660;10.164;2023-10-08T13:40:46;8.77;;;2.60;;
73675;SDS011;61975;48.660;10.164;2023-10-08T13:43:31;8.80;;;2.40;;
73675;SDS011;61975;48.660;10.164;2023-10-08T13:46:03;8.45;;;2.20;;
73675;SDS011;61975;48.660;10.164;2023-10-08T13:48:31;8.07;;;2.17;;
73675;SDS011;61975;48.660;10.164;2023-10-08T13:51:03;8.55;;;2.30;;
73675;SDS011;61975;48.660;10.164;2023-10-08T13:53:33;5.83;;;2.10;;
73675;SDS011;61975;48.660;10.164;2023-10-08T13:56:01;8.98;;;2.35;;
73675;SDS011;61975;48.660;10.164;2023-10-08T13:58:32;8.38;;;2.47;;
73675;SDS011;61975;48.660;10.164;2023-10-08T14:01:00;8.48;;;2.13;;
73675;SDS011;61975;48.660;10.164;2023-10-08T14:03:32;7.38;;;2.53;;
73675;SDS011;61975;48.660;10.164;2023-10-08T14:05:58;9.73;;;2.40;;
73675;SDS011;61975;48.660;10.164;2023-10-08T14:08:28;13.30;;;2.83;;
73675;SDS011;61975;48.660;10.164;2023-10-08T14:10:55;10.18;;;2.63;;
73675;SDS011;61975;48.660;10.164;2023-10-08T14:13:27;9.05;;;2.47;;
73675;SDS011;61975;48.660;10.164;2023-10-08T14:16:00;8.05;;;2.20;;
73675;SDS011;61975;48.660;10.164;2023-10-08T14:18:30;11.10;;;2.57;;
73675;SDS011;61975;48.660;10.164;2023-10-08T14:21:05;9.40;;;2.25;;
73675;SDS011;61975;48.660;10.164;2023-10-08T14:23:36;7.97;;;2.30;;
73675;SDS011;61975;48.660;10.164;2023-10-08T14:26:08;7.90;;;2.25;;
73675;SDS011;61975;48.660;10.164;2023-10-08T14:28:34;10.05;;;2.80;;
73675;SDS011;61975;48.660;10.164;2023-10-08T14:31:09;6.77;;;2.40;;
73675;SDS011;61975;48.660;10.164;2023-10-08T14:33:42;8.70;;;2.20;;
73675;SDS011;61975;48.660;10.164;2023-10-08T14:36:22;10.65;;;2.47;;
73675;SDS011;61975;48.660;10.164;2023-10-08T14:39:07;8.00;;;2.50;;
73675;SDS011;61975;48.660;10.164;2023-10-08T14:41:51;8.30;;;2.58;;
73675;SDS011;61975;48.660;10.164;2023-10-08T14:44:35;11.23;;;2.40;;
73675;SDS011;61975;48.660;10.164;2023-10-08T14:47:02;7.15;;;2.25;;
73675;SDS011;61975;48.660;10.164;2023-10-08T14:49:29;7.72;;;2.67;;
73675;SDS011;61975;48.660;10.164;2023-10-08T14:51:54;9.23;;;2.40;;
73675;SDS011;61975;48.660;10.164;2023-10-08T14:54:20;9.87;;;2.50;;
73675;SDS011;61975;48.660;10.164;2023-10-08T14:56:46;10.57;;;2.45;;
73675;SDS011;61975;48.660;10.164;2023-10-08T14:59:11;7.63;;;2.75;;
73675;SDS011;61975;48.660;10.164;2023-10-08T15:01:37;9.80;;;2.80;;
73675;SDS011;61975;48.660;10.164;2023-10-08T15:04:04;8.45;;;2.60;;
73675;SDS011;61975;48.660;10.164;2023-10-08T15:06:30;9.10;;;2.67;;
73675;SDS011;61975;48.660;10.164;2023-10-08T15:08:57;9.23;;;2.38;;
73675;SDS011;61975;48.660;10.164;2023-10-08T15:11:23;8.93;;;2.63;;
73675;SDS011;61975;48.660;10.164;2023-10-08T15:13:50;7.25;;;2.63;;